createdAt,value
2018-08-25T00:00:04.064Z,95509.49
2018-08-25T00:02:33.168Z,95504.98
2018-08-25T00:05:02.360Z,95503.97
2018-08-25T00:07:31.468Z,95507.61
2018-08-25T00:10:00.674Z,95496.81
2018-08-25T00:12:29.907Z,95497.88
2018-08-25T00:14:59.034Z,95495.05
2018-08-25T00:17:28.105Z,95490.30
2018-08-25T00:19:57.268Z,95484.44
2018-08-25T00:22:26.734Z,95483.03
2018-08-25T00:24:55.852Z,95483.20
2018-08-25T00:27:25.031Z,95482.59
2018-08-25T00:29:54.225Z,95475.45
2018-08-25T00:32:23.313Z,95482.56
2018-08-25T00:34:52.441Z,95478.44
2018-08-25T00:37:21.658Z,95494.61
2018-08-25T00:39:50.845Z,95493.33
2018-08-25T00:42:20.028Z,95493.00
2018-08-25T00:44:49.147Z,95491.63
2018-08-25T00:47:18.238Z,95487.89
2018-08-25T00:49:47.394Z,95485.62
2018-08-25T00:52:16.656Z,95484.84
2018-08-25T00:54:45.960Z,95483.91
2018-08-25T00:57:15.065Z,95486.52
2018-08-25T00:59:44.236Z,95487.44
2018-08-25T01:02:13.404Z,95482.48
2018-08-25T01:04:42.617Z,95483.97
2018-08-25T01:07:11.820Z,95477.96
2018-08-25T01:09:40.939Z,95474.57
2018-08-25T01:12:10.109Z,95484.41
2018-08-25T01:14:39.221Z,95480.86
2018-08-25T01:17:08.385Z,95483.20
2018-08-25T01:19:37.501Z,95480.30
2018-08-25T01:22:06.853Z,95474.20
2018-08-25T01:24:35.973Z,95467.34
2018-08-25T01:27:05.291Z,95476.50
2018-08-25T01:29:34.468Z,95478.63
2018-08-25T01:32:03.604Z,95483.66
2018-08-25T01:34:32.705Z,95476.92
2018-08-25T01:37:01.810Z,95476.05
2018-08-25T01:39:31.060Z,95482.75
2018-08-25T01:42:00.248Z,95483.17
2018-08-25T01:44:29.376Z,95478.38
2018-08-25T01:46:58.469Z,95487.27
2018-08-25T01:49:27.647Z,95482.89
2018-08-25T01:51:56.853Z,95486.37
2018-08-25T01:54:26.025Z,95493.58
2018-08-25T01:56:55.134Z,95484.61
2018-08-25T01:59:24.231Z,95483.62
2018-08-25T02:01:53.442Z,95480.99
2018-08-25T02:04:22.549Z,95477.73
2018-08-25T02:06:51.637Z,95469.36
2018-08-25T02:09:20.733Z,95468.93
2018-08-25T02:11:49.897Z,95469.71
2018-08-25T02:14:19.124Z,95472.80
2018-08-25T02:16:48.413Z,95474.94
2018-08-25T02:19:17.493Z,95467.73
2018-08-25T02:21:46.632Z,95472.75
2018-08-25T02:24:15.784Z,95468.96
2018-08-25T02:26:44.896Z,95466.05
2018-08-25T02:29:14.145Z,95463.72
2018-08-25T02:31:43.290Z,95459.17
2018-08-25T02:34:12.578Z,95458.22
2018-08-25T02:36:41.697Z,95453.03
2018-08-25T02:39:12.677Z,95451.58
2018-08-25T02:41:42.587Z,95454.83
2018-08-25T02:44:11.673Z,95452.08
2018-08-25T02:46:40.790Z,95452.95
2018-08-25T02:49:09.933Z,95452.64
2018-08-25T02:51:39.036Z,95454.10
2018-08-25T02:54:08.265Z,95456.34
2018-08-25T02:56:37.432Z,95455.14
2018-08-25T02:59:06.540Z,95462.01
2018-08-25T03:01:35.625Z,95456.82
2018-08-25T03:04:04.812Z,95461.03
2018-08-25T03:06:33.912Z,95463.72
2018-08-25T03:09:03.360Z,95466.61
2018-08-25T03:11:32.505Z,95475.80
2018-08-25T03:14:01.685Z,95470.30
2018-08-25T03:16:30.796Z,95474.94
2018-08-25T03:18:59.992Z,95471.97
2018-08-25T03:21:29.195Z,95467.59
2018-08-25T03:23:58.294Z,95465.09
2018-08-25T03:26:27.558Z,95468.96
2018-08-25T03:28:56.643Z,95460.55
2018-08-25T03:31:25.744Z,95469.22
2018-08-25T03:33:54.860Z,95460.38
2018-08-25T03:36:23.946Z,95463.94
2018-08-25T03:38:53.029Z,95459.66
2018-08-25T03:41:22.163Z,95458.45
2018-08-25T03:43:51.335Z,95457.55
2018-08-25T03:46:20.428Z,95460.21
2018-08-25T03:48:49.653Z,95462.34
2018-08-25T03:51:18.745Z,95461.05
2018-08-25T03:53:47.933Z,95459.82
2018-08-25T03:56:17.148Z,95442.21
2018-08-25T03:58:46.254Z,95436.32
2018-08-25T04:01:15.341Z,95430.74
2018-08-25T04:03:44.499Z,95433.88
2018-08-25T04:06:13.624Z,95434.86
2018-08-25T04:08:42.801Z,95435.34
2018-08-25T04:11:11.912Z,95435.98
2018-08-25T04:13:41.089Z,95440.76
2018-08-25T04:16:10.189Z,95439.52
2018-08-25T04:18:39.424Z,95437.16
2018-08-25T04:21:08.521Z,95441.28
2018-08-25T04:23:37.608Z,95440.47
2018-08-25T04:26:06.832Z,95435.63
2018-08-25T04:28:35.972Z,95437.72
2018-08-25T04:31:05.073Z,95442.32
2018-08-25T04:33:34.431Z,95444.34
2018-08-25T04:36:03.492Z,95447.17
2018-08-25T04:38:39.441Z,95451.46
2018-08-25T04:41:08.553Z,95451.34
2018-08-25T04:43:37.712Z,95448.20
2018-08-25T04:46:07.181Z,95451.50
2018-08-25T04:48:36.317Z,95444.00
2018-08-25T04:51:05.513Z,95441.08
2018-08-25T04:53:34.621Z,95443.57
2018-08-25T04:56:03.803Z,95441.85
2018-08-25T04:58:32.901Z,95443.14
2018-08-25T05:01:02.001Z,95443.48
2018-08-25T05:03:31.097Z,95440.57
2018-08-25T05:06:00.219Z,95441.55
2018-08-25T05:08:29.384Z,95440.27
2018-08-25T05:10:58.620Z,95451.12
2018-08-25T05:13:27.709Z,95453.19
2018-08-25T05:15:56.816Z,95452.66
2018-08-25T05:18:25.979Z,95450.48
2018-08-25T05:20:55.082Z,95449.10
2018-08-25T05:23:24.202Z,95456.95
2018-08-25T05:25:53.546Z,95458.89
2018-08-25T05:28:22.644Z,95455.67
2018-08-25T05:30:51.763Z,95451.69
2018-08-25T05:33:20.948Z,95454.69
2018-08-25T05:35:50.057Z,95455.53
2018-08-25T05:38:19.148Z,95456.66
2018-08-25T05:40:48.249Z,95457.30
2018-08-25T05:43:17.417Z,95456.66
2018-08-25T05:45:46.537Z,95467.00
2018-08-25T05:48:15.725Z,95462.79
2018-08-25T05:50:44.910Z,95462.23
2018-08-25T05:53:14.043Z,95459.88
2018-08-25T05:55:43.161Z,95464.50
2018-08-25T05:58:12.320Z,95462.82
2018-08-25T06:00:41.535Z,95463.30
2018-08-25T06:03:10.746Z,95459.48
2018-08-25T06:05:39.799Z,95462.09
2018-08-25T06:08:08.922Z,95470.08
2018-08-25T06:10:38.013Z,95463.94
2018-08-25T06:13:07.180Z,95468.06
2018-08-25T06:15:36.297Z,95469.44
2018-08-25T06:18:05.373Z,95464.45
2018-08-25T06:20:34.665Z,95456.38
2018-08-25T06:23:03.762Z,95461.00
2018-08-25T06:25:32.889Z,95460.39
2018-08-25T06:28:02.056Z,95463.56
2018-08-25T06:30:31.196Z,95457.02
2018-08-25T06:33:00.353Z,95466.55
2018-08-25T06:35:29.470Z,95458.47
2018-08-25T06:37:58.654Z,95462.41
2018-08-25T06:40:27.756Z,95456.17
2018-08-25T06:42:56.878Z,95450.72
2018-08-25T06:45:25.984Z,95456.39
2018-08-25T06:47:55.900Z,95456.42
2018-08-25T06:50:24.979Z,95458.86
2018-08-25T06:52:54.068Z,95457.56
2018-08-25T06:55:23.228Z,95456.91
2018-08-25T06:57:52.340Z,95460.47
2018-08-25T07:00:21.551Z,95458.22
2018-08-25T07:02:50.735Z,95464.67
2018-08-25T07:05:19.979Z,95462.98
2018-08-25T07:07:49.781Z,95458.22
2018-08-25T07:10:18.965Z,95463.53
2018-08-25T07:12:48.131Z,95462.31
2018-08-25T07:15:17.255Z,95463.31
2018-08-25T07:17:46.429Z,95456.84
2018-08-25T07:20:15.557Z,95460.64
2018-08-25T07:22:44.743Z,95458.86
2018-08-25T07:25:13.875Z,95456.83
2018-08-25T07:27:43.023Z,95456.58
2018-08-25T07:30:12.133Z,95461.28
2018-08-25T07:32:41.226Z,95458.37
2018-08-25T07:35:10.434Z,95458.59
2018-08-25T07:37:39.609Z,95457.84
2018-08-25T07:40:08.705Z,95456.36
2018-08-25T07:42:37.827Z,95459.20
2018-08-25T07:45:07.167Z,95453.45
2018-08-25T07:47:36.287Z,95457.63
2018-08-25T07:50:05.989Z,95457.02
2018-08-25T07:52:35.116Z,95447.64
2018-08-25T07:55:04.225Z,95445.91
2018-08-25T07:57:33.400Z,95451.70
2018-08-25T08:00:02.617Z,95454.36
2018-08-25T08:02:31.778Z,95443.09
2018-08-25T08:05:00.972Z,95445.91
2018-08-25T08:07:30.078Z,95448.30
2018-08-25T08:09:59.168Z,95451.11
2018-08-25T08:12:28.333Z,95451.25
2018-08-25T08:14:57.688Z,95454.42
2018-08-25T08:17:26.856Z,95445.86
2018-08-25T08:19:55.997Z,95444.64
2018-08-25T08:22:25.239Z,95449.90
2018-08-25T08:24:54.340Z,95449.73
2018-08-25T08:27:23.411Z,95448.09
2018-08-25T08:29:52.545Z,95446.71
2018-08-25T08:32:21.643Z,95441.81
2018-08-25T08:34:50.721Z,95434.33
2018-08-25T08:37:19.853Z,95441.98
2018-08-25T08:39:49.081Z,95439.64
2018-08-25T08:42:18.212Z,95440.78
2018-08-25T08:44:47.324Z,95439.50
2018-08-25T08:47:16.424Z,95441.51
2018-08-25T08:49:46.908Z,95446.88
2018-08-25T08:52:14.620Z,95450.22
2018-08-25T08:54:43.696Z,95446.59
2018-08-25T08:57:12.784Z,95451.23
2018-08-25T08:59:42.562Z,95447.34
2018-08-25T09:02:11.641Z,95446.78
2018-08-25T09:04:40.716Z,95448.33
2018-08-25T09:07:09.897Z,95450.97
2018-08-25T09:09:39.079Z,95448.45
2018-08-25T09:12:08.180Z,95441.55
2018-08-25T09:14:37.340Z,95451.08
2018-08-25T09:17:06.788Z,95454.49
2018-08-25T09:19:35.901Z,95455.66
2018-08-25T09:22:05.080Z,95450.70
2018-08-25T09:24:34.264Z,95452.69
2018-08-25T09:27:03.365Z,95450.90
2018-08-25T09:29:32.572Z,95442.02
2018-08-25T09:32:01.824Z,95450.80
2018-08-25T09:34:30.946Z,95449.95
2018-08-25T09:37:00.214Z,95457.41
2018-08-25T09:39:29.255Z,95454.33
2018-08-25T09:41:58.346Z,95449.83
2018-08-25T09:44:27.562Z,95444.30
2018-08-25T09:46:56.662Z,95434.21
2018-08-25T09:49:25.756Z,95437.11
2018-08-25T09:51:54.943Z,95440.72
2018-08-25T09:54:24.070Z,95438.43
2018-08-25T09:56:53.174Z,95436.48
2018-08-25T09:59:22.411Z,95437.09
2018-08-25T10:01:56.759Z,95434.09
2018-08-25T10:04:26.046Z,95447.37
2018-08-25T10:06:55.252Z,95432.05
2018-08-25T10:09:24.694Z,95439.09
2018-08-25T10:11:54.062Z,95430.64
2018-08-25T10:14:23.242Z,95435.88
2018-08-25T10:16:53.002Z,95443.52
2018-08-25T10:19:22.072Z,95442.63
2018-08-25T10:21:51.144Z,95440.81
2018-08-25T10:24:20.334Z,95445.41
2018-08-25T10:26:49.444Z,95444.86
2018-08-25T10:29:18.544Z,95445.65
2018-08-25T10:31:47.676Z,95446.48
2018-08-25T10:34:16.867Z,95439.83
2018-08-25T10:36:45.955Z,95435.56
2018-08-25T10:39:15.110Z,95434.11
2018-08-25T10:41:44.356Z,95430.66
2018-08-25T10:44:13.384Z,95443.77
2018-08-25T10:46:42.527Z,95438.97
2018-08-25T10:49:12.101Z,95434.08
2018-08-25T10:51:41.237Z,95444.36
2018-08-25T10:54:10.441Z,95438.40
2018-08-25T10:56:39.537Z,95434.33
2018-08-25T10:59:08.692Z,95432.12
2018-08-25T11:01:37.871Z,95431.04
2018-08-25T11:04:07.016Z,95424.69
2018-08-25T11:06:36.177Z,95423.53
2018-08-25T11:09:12.909Z,95418.14
2018-08-25T11:11:42.051Z,95413.61
2018-08-25T11:14:11.505Z,95414.06
2018-08-25T11:16:40.607Z,95423.09
2018-08-25T11:19:09.753Z,95416.63
2018-08-25T11:21:38.933Z,95400.97
2018-08-25T11:24:08.061Z,95410.64
2018-08-25T11:26:37.239Z,95407.80
2018-08-25T11:29:06.589Z,95406.30
2018-08-25T11:31:35.649Z,95411.00
2018-08-25T11:34:04.837Z,95415.28
2018-08-25T11:36:33.917Z,95421.44
2018-08-25T11:39:03.248Z,95413.70
2018-08-25T11:41:32.421Z,95410.95
2018-08-25T11:44:01.576Z,95415.16
2018-08-25T11:46:30.632Z,95409.70
2018-08-25T11:48:59.719Z,95409.45
2018-08-25T11:51:28.801Z,95415.05
2018-08-25T11:53:57.967Z,95408.35
2018-08-25T11:56:27.244Z,95397.08
2018-08-25T11:58:56.338Z,95400.77
2018-08-25T12:01:25.436Z,95408.61
2018-08-25T12:03:54.512Z,95408.12
2018-08-25T12:06:23.616Z,95396.62
2018-08-25T12:08:53.211Z,95395.91
2018-08-25T12:11:22.404Z,95396.05
2018-08-25T12:13:51.572Z,95406.79
2018-08-25T12:16:20.742Z,95395.27
2018-08-25T12:18:49.888Z,95397.45
2018-08-25T12:21:18.974Z,95397.30
2018-08-25T12:23:48.184Z,95405.84
2018-08-25T12:26:17.352Z,95408.02
2018-08-25T12:28:46.455Z,95409.39
2018-08-25T12:31:15.564Z,95411.26
2018-08-25T12:33:44.668Z,95414.91
2018-08-25T12:36:13.749Z,95412.84
2018-08-25T12:38:42.853Z,95415.52
2018-08-25T12:41:11.942Z,95423.92
2018-08-25T12:43:41.041Z,95423.38
2018-08-25T12:46:10.165Z,95425.19
2018-08-25T12:48:39.394Z,95439.18
2018-08-25T12:51:08.533Z,95438.52
2018-08-25T12:53:37.616Z,95434.83
2018-08-25T12:56:06.713Z,95432.59
2018-08-25T12:58:35.903Z,95432.06
2018-08-25T13:01:05.067Z,95427.20
2018-08-25T13:03:34.441Z,95421.48
2018-08-25T13:06:03.715Z,95423.02
2018-08-25T13:08:32.829Z,95425.61
2018-08-25T13:11:02.192Z,95421.59
2018-08-25T13:13:31.311Z,95418.56
2018-08-25T13:16:00.405Z,95424.94
2018-08-25T13:18:29.501Z,95421.03
2018-08-25T13:20:58.580Z,95423.97
2018-08-25T13:23:27.820Z,95412.81
2018-08-25T13:25:56.880Z,95423.09
2018-08-25T13:28:25.972Z,95418.63
2018-08-25T13:30:55.228Z,95424.22
2018-08-25T13:33:24.376Z,95437.89
2018-08-25T13:35:53.491Z,95444.38
2018-08-25T13:38:22.827Z,95451.02
2018-08-25T13:40:51.973Z,95444.97
2018-08-25T13:43:21.058Z,95441.93
2018-08-25T13:45:50.164Z,95446.19
2018-08-25T13:48:19.245Z,95446.44
2018-08-25T13:50:48.342Z,95443.22
2018-08-25T13:53:17.549Z,95436.57
2018-08-25T13:55:46.669Z,95432.97
2018-08-25T13:58:15.854Z,95434.47
2018-08-25T14:00:45.041Z,95436.88
2018-08-25T14:03:14.481Z,95432.16
2018-08-25T14:05:43.584Z,95441.28
2018-08-25T14:08:12.791Z,95437.55
2018-08-25T14:10:41.925Z,95441.16
2018-08-25T14:13:11.021Z,95438.45
2018-08-25T14:15:40.281Z,95446.57
2018-08-25T14:18:09.431Z,95440.34
2018-08-25T14:20:38.631Z,95442.41
2018-08-25T14:23:07.729Z,95445.36
2018-08-25T14:25:36.925Z,95450.24
2018-08-25T14:28:06.129Z,95449.15
2018-08-25T14:30:35.321Z,95443.56
2018-08-25T14:33:04.499Z,95443.95
2018-08-25T14:35:33.595Z,95440.86
2018-08-25T14:38:02.803Z,95441.82
2018-08-25T14:40:31.905Z,95444.94
2018-08-25T14:43:01.002Z,95436.70
2018-08-25T14:45:30.140Z,95436.09
2018-08-25T14:47:59.232Z,95439.09
2018-08-25T14:50:28.445Z,95439.30
2018-08-25T14:52:57.584Z,95436.02
2018-08-25T14:55:26.690Z,95432.97
2018-08-25T14:57:55.854Z,95436.47
2018-08-25T15:00:25.002Z,95442.95
2018-08-25T15:02:54.060Z,95448.80
2018-08-25T15:05:23.148Z,95452.44
2018-08-25T15:07:52.487Z,95447.62
2018-08-25T15:10:21.636Z,95449.06
2018-08-25T15:12:50.784Z,95459.11
2018-08-25T15:15:20.710Z,95455.55
2018-08-25T15:17:49.937Z,95459.67
2018-08-25T15:20:19.040Z,95463.48
2018-08-25T15:22:48.182Z,95454.19
2018-08-25T15:25:17.332Z,95460.22
2018-08-25T15:27:46.451Z,95465.52
2018-08-25T15:30:15.622Z,95463.59
2018-08-25T15:32:44.699Z,95465.26
2018-08-25T15:35:13.819Z,95461.36
2018-08-25T15:37:42.924Z,95463.08
2018-08-25T15:40:12.043Z,95463.03
2018-08-25T15:42:41.253Z,95467.15
2018-08-25T15:45:10.425Z,95467.52
2018-08-25T15:47:39.532Z,95460.91
2018-08-25T15:50:08.633Z,95469.19
2018-08-25T15:52:37.738Z,95472.58
2018-08-25T15:55:07.114Z,95471.11
2018-08-25T15:57:36.213Z,95472.49
2018-08-25T16:00:05.747Z,95472.86
2018-08-25T16:02:35.048Z,95471.73
2018-08-25T16:05:04.229Z,95466.86
2018-08-25T16:07:33.356Z,95468.73
2018-08-25T16:10:02.445Z,95471.04
2018-08-25T16:12:31.717Z,95470.74
2018-08-25T16:15:00.792Z,95477.45
2018-08-25T16:17:30.236Z,95475.98
2018-08-25T16:19:59.579Z,95477.20
2018-08-25T16:22:28.948Z,95480.35
2018-08-25T16:24:58.436Z,95481.56
2018-08-25T16:27:27.878Z,95480.44
2018-08-25T16:29:57.044Z,95481.80
2018-08-25T16:32:26.228Z,95482.21
2018-08-25T16:34:55.314Z,95479.36
2018-08-25T16:37:24.420Z,95477.00
2018-08-25T16:39:53.518Z,95475.64
2018-08-25T16:42:22.664Z,95481.16
2018-08-25T16:44:51.852Z,95479.06
2018-08-25T16:47:20.932Z,95481.89
2018-08-25T16:49:50.060Z,95487.67
2018-08-25T16:52:19.241Z,95489.14
2018-08-25T16:54:48.349Z,95490.06
2018-08-25T16:57:17.636Z,95487.52
2018-08-25T16:59:46.726Z,95497.01
2018-08-25T17:02:15.874Z,95490.88
2018-08-25T17:04:45.029Z,95490.98
2018-08-25T17:07:14.253Z,95498.12
2018-08-25T17:09:43.401Z,95494.98
2018-08-25T17:12:12.527Z,95496.13
2018-08-25T17:14:41.625Z,95501.48
2018-08-25T17:17:10.721Z,95501.77
2018-08-25T17:19:40.065Z,95508.52
2018-08-25T17:22:09.164Z,95507.58
2018-08-25T17:24:38.300Z,95503.53
2018-08-25T17:27:07.648Z,95509.89
2018-08-25T17:29:36.849Z,95510.70
2018-08-25T17:32:06.033Z,95510.67
2018-08-25T17:34:35.104Z,95515.63
2018-08-25T17:37:04.219Z,95514.55
2018-08-25T17:39:33.396Z,95516.25
2018-08-25T17:42:02.584Z,95515.92
2018-08-25T17:44:31.882Z,95517.48
2018-08-25T17:47:00.981Z,95517.28
2018-08-25T17:49:30.916Z,95519.61
2018-08-25T17:52:00.016Z,95512.59
2018-08-25T17:54:29.180Z,95526.45
2018-08-25T17:56:58.369Z,95527.14
2018-08-25T17:59:27.417Z,95534.21
2018-08-25T18:01:56.529Z,95524.13
2018-08-25T18:04:25.624Z,95523.75
2018-08-25T18:06:54.879Z,95519.41
2018-08-25T18:09:23.960Z,95531.67
2018-08-25T18:11:53.069Z,95535.15
2018-08-25T18:14:22.350Z,95536.45
2018-08-25T18:16:51.458Z,95532.91
2018-08-25T18:19:20.658Z,95539.48
2018-08-25T18:21:49.777Z,95545.81
2018-08-25T18:24:19.271Z,95545.45
2018-08-25T18:26:48.345Z,95544.67
2018-08-25T18:29:17.461Z,95549.92
2018-08-25T18:31:46.545Z,95552.69
2018-08-25T18:34:16.024Z,95561.38
2018-08-25T18:36:45.147Z,95554.94
2018-08-25T18:39:14.797Z,95558.23
2018-08-25T18:41:44.621Z,95554.81
2018-08-25T18:44:14.521Z,95547.27
2018-08-25T18:46:43.717Z,95557.73
2018-08-25T18:49:12.869Z,95560.41
2018-08-25T18:51:42.025Z,95564.20
2018-08-25T18:54:11.173Z,95568.86
2018-08-25T18:56:40.267Z,95577.25
2018-08-25T18:59:09.373Z,95578.70
2018-08-25T19:01:38.551Z,95573.02
2018-08-25T19:04:07.675Z,95585.75
2018-08-25T19:06:36.934Z,95587.87
2018-08-25T19:09:07.497Z,95580.96
2018-08-25T19:11:36.597Z,95584.56
2018-08-25T19:14:05.757Z,95588.83
2018-08-25T19:16:34.859Z,95579.92
2018-08-25T19:19:03.954Z,95578.50
2018-08-25T19:21:33.055Z,95583.22
2018-08-25T19:24:02.391Z,95584.79
2018-08-25T19:26:31.668Z,95580.77
2018-08-25T19:29:00.875Z,95581.52
2018-08-25T19:31:30.061Z,95585.34
2018-08-25T19:33:59.304Z,95587.45
2018-08-25T19:36:28.801Z,95592.67
2018-08-25T19:38:57.937Z,95591.42
2018-08-25T19:41:27.088Z,95590.55
2018-08-25T19:43:56.242Z,95588.75
2018-08-25T19:46:25.434Z,95593.34
2018-08-25T19:48:54.531Z,95591.72
2018-08-25T19:51:23.627Z,95595.05
2018-08-25T19:53:52.732Z,95595.95
2018-08-25T19:56:21.929Z,95599.65
2018-08-25T19:58:51.305Z,95589.05
2018-08-25T20:01:20.450Z,95598.69
2018-08-25T20:03:49.552Z,95601.36
2018-08-25T20:06:18.800Z,95598.13
2018-08-25T20:08:47.918Z,95598.60
2018-08-25T20:11:17.005Z,95601.63
2018-08-25T20:13:46.132Z,95595.89
2018-08-25T20:16:15.305Z,95603.49
2018-08-25T20:18:44.401Z,95596.77
2018-08-25T20:21:13.541Z,95600.88
2018-08-25T20:23:42.617Z,95609.11
2018-08-25T20:26:11.725Z,95606.69
2018-08-25T20:28:40.965Z,95611.22
2018-08-25T20:31:10.040Z,95616.13
2018-08-25T20:33:39.157Z,95618.06
2018-08-25T20:36:08.415Z,95616.59
2018-08-25T20:38:37.577Z,95619.18
2018-08-25T20:41:06.777Z,95620.36
2018-08-25T20:43:35.965Z,95627.34
2018-08-25T20:46:05.319Z,95619.55
2018-08-25T20:48:34.340Z,95622.97
2018-08-25T20:51:03.493Z,95637.97
2018-08-25T20:53:32.576Z,95641.97
2018-08-25T20:56:01.709Z,95634.76
2018-08-25T20:58:30.801Z,95638.70
2018-08-25T21:01:00.044Z,95639.73
2018-08-25T21:03:28.997Z,95638.61
2018-08-25T21:05:58.140Z,95640.38
2018-08-25T21:08:27.238Z,95642.88
2018-08-25T21:10:56.415Z,95641.45
2018-08-25T21:13:25.535Z,95641.24
2018-08-25T21:15:54.637Z,95641.17
2018-08-25T21:18:23.721Z,95640.84
2018-08-25T21:20:52.900Z,95648.13
2018-08-25T21:23:22.091Z,95651.45
2018-08-25T21:25:51.235Z,95651.13
2018-08-25T21:28:20.400Z,95646.94
2018-08-25T21:30:49.646Z,95643.91
2018-08-25T21:33:18.785Z,95652.16
2018-08-25T21:35:48.004Z,95643.73
2018-08-25T21:38:17.093Z,95642.46
2018-08-25T21:40:46.209Z,95655.97
2018-08-25T21:43:15.385Z,95660.12
2018-08-25T21:45:44.513Z,95662.53
2018-08-25T21:48:13.681Z,95650.59
2018-08-25T21:50:42.870Z,95644.94
2018-08-25T21:53:11.997Z,95634.80
2018-08-25T21:55:41.101Z,95634.52
2018-08-25T21:58:10.180Z,95638.12
2018-08-25T22:00:45.411Z,95637.52
2018-08-25T22:03:14.655Z,95640.21
2018-08-25T22:05:43.804Z,95641.13
2018-08-25T22:08:12.973Z,95650.23
2018-08-25T22:10:42.095Z,95646.76
2018-08-25T22:13:11.194Z,95652.46
2018-08-25T22:15:40.280Z,95654.28
2018-08-25T22:18:09.361Z,95652.69
2018-08-25T22:20:38.609Z,95650.23
2018-08-25T22:23:07.689Z,95650.69
2018-08-25T22:25:36.801Z,95657.02
2018-08-25T22:28:05.917Z,95647.77
2018-08-25T22:30:35.045Z,95642.72
2018-08-25T22:33:04.129Z,95641.89
2018-08-25T22:35:33.233Z,95638.89
2018-08-25T22:38:02.322Z,95638.39
2018-08-25T22:40:31.423Z,95638.16
2018-08-25T22:43:00.622Z,95641.08
2018-08-25T22:45:29.929Z,95645.91
2018-08-25T22:47:59.120Z,95654.55
2018-08-25T22:50:28.229Z,95650.31
2018-08-25T22:52:57.318Z,95647.00
2018-08-25T22:55:26.409Z,95641.66
2018-08-25T22:57:55.496Z,95646.31
2018-08-25T23:00:26.420Z,95642.67
2018-08-25T23:02:55.540Z,95637.98
2018-08-25T23:05:25.005Z,95640.39
2018-08-25T23:07:54.320Z,95638.20
2018-08-25T23:10:23.460Z,95636.67
2018-08-25T23:12:52.625Z,95640.56
2018-08-25T23:15:21.726Z,95640.78
2018-08-25T23:17:50.860Z,95643.88
2018-08-25T23:20:20.022Z,95641.43
2018-08-25T23:22:49.206Z,95641.14
2018-08-25T23:25:18.316Z,95636.74
2018-08-25T23:27:47.425Z,95633.19
2018-08-25T23:30:16.644Z,95643.89
2018-08-25T23:32:45.812Z,95637.55
2018-08-25T23:35:14.904Z,95637.04
2018-08-25T23:37:44.004Z,95640.57
2018-08-25T23:40:13.187Z,95642.19
2018-08-25T23:42:42.281Z,95647.66
2018-08-25T23:45:11.383Z,95642.14
2018-08-25T23:47:40.489Z,95644.05
2018-08-25T23:50:09.595Z,95647.95
2018-08-25T23:52:38.725Z,95641.91
2018-08-25T23:55:08.443Z,95639.20
2018-08-25T23:57:37.526Z,95636.78
